sensor_id;sensor_type;location;lat;lon;timestamp;pressure;altitude;pressure_sealevel;temperature;humidity
49102;BME280;34913;47.520;19.186;2023-03-21T00:00:39;99878.22;;;9.07;78.36
49102;BME280;34913;47.520;19.186;2023-03-21T00:03:05;99876.44;;;9.08;78.35
49102;BME280;34913;47.520;19.186;2023-03-21T00:05:31;99876.22;;;9.11;78.39
49102;BME280;34913;47.520;19.186;2023-03-21T00:07:56;99870.91;;;9.11;78.19
49102;BME280;34913;47.520;19.186;2023-03-21T00:10:21;99863.94;;;9.10;78.29
49102;BME280;34913;47.520;19.186;2023-03-21T00:12:47;99861.16;;;9.11;78.07
49102;BME280;34913;47.520;19.186;2023-03-21T00:15:19;99867.44;;;9.10;78.26
49102;BME280;34913;47.520;19.186;2023-03-21T00:17:45;99861.16;;;9.11;78.37
49102;BME280;34913;47.520;19.186;2023-03-21T00:20:10;99864.78;;;9.10;77.94
49102;BME280;34913;47.520;19.186;2023-03-21T00:22:39;99856.34;;;9.05;78.39
49102;BME280;34913;47.520;19.186;2023-03-21T00:25:06;99859.84;;;9.06;78.20
49102;BME280;34913;47.520;19.186;2023-03-21T00:27:32;99855.97;;;8.99;78.76
49102;BME280;34913;47.520;19.186;2023-03-21T00:29:58;99856.34;;;8.94;79.03
49102;BME280;34913;47.520;19.186;2023-03-21T00:32:23;99854.75;;;8.91;79.20
49102;BME280;34913;47.520;19.186;2023-03-21T00:34:49;99852.25;;;8.90;79.25
49102;BME280;34913;47.520;19.186;2023-03-21T00:37:16;99844.78;;;8.84;79.42
49102;BME280;34913;47.520;19.186;2023-03-21T00:39:43;99843.69;;;8.75;79.44
49102;BME280;34913;47.520;19.186;2023-03-21T00:42:14;99843.94;;;8.72;79.63
49102;BME280;34913;47.520;19.186;2023-03-21T00:44:40;99838.91;;;8.69;80.00
49102;BME280;34913;47.520;19.186;2023-03-21T00:47:05;99834.78;;;8.65;79.88
49102;BME280;34913;47.520;19.186;2023-03-21T00:49:31;99828.03;;;8.61;80.28
49102;BME280;34913;47.520;19.186;2023-03-21T00:52:04;99825.28;;;8.62;80.10
49102;BME280;34913;47.520;19.186;2023-03-21T00:54:31;99831.44;;;8.63;80.36
49102;BME280;34913;47.520;19.186;2023-03-21T00:56:57;99826.97;;;8.63;80.54
49102;BME280;34913;47.520;19.186;2023-03-21T00:59:22;99829.25;;;8.68;80.54
49102;BME280;34913;47.520;19.186;2023-03-21T01:01:48;99826.59;;;8.68;80.68
49102;BME280;34913;47.520;19.186;2023-03-21T01:04:14;99823.22;;;8.66;80.72
49102;BME280;34913;47.520;19.186;2023-03-21T01:06:42;99822.88;;;8.59;80.40
49102;BME280;34913;47.520;19.186;2023-03-21T01:09:14;99820.44;;;8.45;81.32
49102;BME280;34913;47.520;19.186;2023-03-21T01:11:41;99818.03;;;8.42;81.58
49102;BME280;34913;47.520;19.186;2023-03-21T01:14:06;99814.41;;;8.43;81.60
49102;BME280;34913;47.520;19.186;2023-03-21T01:16:32;99816.47;;;8.51;81.66
49102;BME280;34913;47.520;19.186;2023-03-21T01:18:57;99806.53;;;8.54;81.43
49102;BME280;34913;47.520;19.186;2023-03-21T01:21:24;99808.78;;;8.59;81.10
49102;BME280;34913;47.520;19.186;2023-03-21T01:23:52;99810.72;;;8.68;81.03
49102;BME280;34913;47.520;19.186;2023-03-21T01:26:18;99813.03;;;8.73;81.09
49102;BME280;34913;47.520;19.186;2023-03-21T01:28:44;99811.56;;;8.91;80.78
49102;BME280;34913;47.520;19.186;2023-03-21T01:31:11;99810.84;;;9.00;80.18
49102;BME280;34913;47.520;19.186;2023-03-21T01:33:37;99811.59;;;9.02;80.06
49102;BME280;34913;47.520;19.186;2023-03-21T01:36:03;99811.34;;;9.05;79.96
49102;BME280;34913;47.520;19.186;2023-03-21T01:38:29;99802.44;;;8.95;80.47
49102;BME280;34913;47.520;19.186;2023-03-21T01:40:54;99805.69;;;8.87;80.60
49102;BME280;34913;47.520;19.186;2023-03-21T01:43:32;99807.00;;;8.82;80.68
49102;BME280;34913;47.520;19.186;2023-03-21T01:48:41;99814.09;;;8.81;80.80
49102;BME280;34913;47.520;19.186;2023-03-21T01:51:10;99822.66;;;8.74;81.15
49102;BME280;34913;47.520;19.186;2023-03-21T01:53:38;99823.84;;;8.70;81.05
49102;BME280;34913;47.520;19.186;2023-03-21T01:56:11;99822.03;;;8.59;81.61
49102;BME280;34913;47.520;19.186;2023-03-21T01:58:39;99817.19;;;8.53;81.82
49102;BME280;34913;47.520;19.186;2023-03-21T02:01:07;99817.09;;;8.54;82.45
49102;BME280;34913;47.520;19.186;2023-03-21T02:03:33;99815.88;;;8.58;82.39
49102;BME280;34913;47.520;19.186;2023-03-21T02:06:17;99817.81;;;8.56;82.75
49102;BME280;34913;47.520;19.186;2023-03-21T02:08:44;99817.56;;;8.59;82.59
49102;BME280;34913;47.520;19.186;2023-03-21T02:11:10;99823.59;;;8.61;82.38
49102;BME280;34913;47.520;19.186;2023-03-21T02:13:36;99824.06;;;8.66;82.17
49102;BME280;34913;47.520;19.186;2023-03-21T02:16:17;99816.97;;;8.67;82.35
49102;BME280;34913;47.520;19.186;2023-03-21T02:27:14;99811.72;;;8.78;82.99
49102;BME280;34913;47.520;19.186;2023-03-21T02:35:50;99815.44;;;8.87;82.93
49102;BME280;34913;47.520;19.186;2023-03-21T02:38:36;99812.66;;;8.88;82.94
49102;BME280;34913;47.520;19.186;2023-03-21T02:43:45;99815.19;;;8.90;82.82
49102;BME280;34913;47.520;19.186;2023-03-21T02:46:25;99807.38;;;8.88;82.92
49102;BME280;34913;47.520;19.186;2023-03-21T02:49:45;99819.38;;;8.92;82.81
49102;BME280;34913;47.520;19.186;2023-03-21T02:52:04;99822.16;;;8.91;82.93
49102;BME280;34913;47.520;19.186;2023-03-21T02:54:33;99816.28;;;8.87;83.06
49102;BME280;34913;47.520;19.186;2023-03-21T02:57:01;99815.91;;;8.92;83.04
49102;BME280;34913;47.520;19.186;2023-03-21T02:59:29;99821.09;;;8.93;82.87
49102;BME280;34913;47.520;19.186;2023-03-21T03:01:56;99817.63;;;8.93;82.92
49102;BME280;34913;47.520;19.186;2023-03-21T03:04:26;99824.94;;;9.01;82.82
49102;BME280;34913;47.520;19.186;2023-03-21T03:12:24;99816.63;;;9.28;81.38
49102;BME280;34913;47.520;19.186;2023-03-21T03:18:10;99818.53;;;9.26;81.07
49102;BME280;34913;47.520;19.186;2023-03-21T03:28:36;99823.25;;;9.11;81.28
49102;BME280;34913;47.520;19.186;2023-03-21T03:31:03;99814.38;;;9.01;81.68
49102;BME280;34913;47.520;19.186;2023-03-21T03:33:30;99819.53;;;9.02;81.92
49102;BME280;34913;47.520;19.186;2023-03-21T03:35:58;99810.13;;;8.98;82.04
49102;BME280;34913;47.520;19.186;2023-03-21T03:38:24;99826.84;;;8.99;82.06
49102;BME280;34913;47.520;19.186;2023-03-21T03:40:54;99819.50;;;8.91;82.68
49102;BME280;34913;47.520;19.186;2023-03-21T03:43:29;99826.38;;;8.82;82.79
49102;BME280;34913;47.520;19.186;2023-03-21T03:46:00;99826.13;;;8.74;83.13
49102;BME280;34913;47.520;19.186;2023-03-21T03:48:31;99831.88;;;8.68;83.52
49102;BME280;34913;47.520;19.186;2023-03-21T03:51:13;99820.25;;;8.71;83.65
49102;BME280;34913;47.520;19.186;2023-03-21T03:53:43;99819.50;;;8.68;83.53
49102;BME280;34913;47.520;19.186;2023-03-21T03:56:11;99810.84;;;8.66;83.30
49102;BME280;34913;47.520;19.186;2023-03-21T03:58:38;99813.97;;;8.60;83.17
49102;BME280;34913;47.520;19.186;2023-03-21T04:01:05;99816.00;;;8.46;84.07
49102;BME280;34913;47.520;19.186;2023-03-21T04:03:33;99827.09;;;8.27;85.14
49102;BME280;34913;47.520;19.186;2023-03-21T04:06:00;99832.50;;;8.14;85.85
49102;BME280;34913;47.520;19.186;2023-03-21T04:08:25;99829.34;;;8.09;85.91
49102;BME280;34913;47.520;19.186;2023-03-21T04:10:51;99832.38;;;8.16;85.83
49102;BME280;34913;47.520;19.186;2023-03-21T04:13:16;99830.19;;;8.09;85.43
49102;BME280;34913;47.520;19.186;2023-03-21T04:15:43;99840.09;;;7.95;86.72
49102;BME280;34913;47.520;19.186;2023-03-21T04:18:09;99841.63;;;7.86;87.28
49102;BME280;34913;47.520;19.186;2023-03-21T04:20:34;99835.31;;;8.00;86.92
49102;BME280;34913;47.520;19.186;2023-03-21T04:23:00;99821.84;;;8.03;86.35
49102;BME280;34913;47.520;19.186;2023-03-21T04:25:26;99824.88;;;7.98;85.80
49102;BME280;34913;47.520;19.186;2023-03-21T04:27:53;99832.25;;;7.82;86.74
49102;BME280;34913;47.520;19.186;2023-03-21T04:30:20;99832.00;;;7.85;86.93
49102;BME280;34913;47.520;19.186;2023-03-21T04:32:45;99831.88;;;7.87;86.82
49102;BME280;34913;47.520;19.186;2023-03-21T04:35:21;99828.25;;;7.76;86.82
49102;BME280;34913;47.520;19.186;2023-03-21T04:37:46;99832.63;;;7.65;87.35
49102;BME280;34913;47.520;19.186;2023-03-21T04:40:12;99830.50;;;7.70;87.46
49102;BME280;34913;47.520;19.186;2023-03-21T04:42:42;99829.47;;;7.60;87.30
49102;BME280;34913;47.520;19.186;2023-03-21T04:45:08;99836.19;;;7.40;88.35
49102;BME280;34913;47.520;19.186;2023-03-21T04:47:33;99830.81;;;7.41;88.30
49102;BME280;34913;47.520;19.186;2023-03-21T04:49:59;99815.50;;;7.34;88.86
49102;BME280;34913;47.520;19.186;2023-03-21T04:52:25;99821.75;;;7.33;89.31
49102;BME280;34913;47.520;19.186;2023-03-21T04:54:50;99822.28;;;7.25;90.36
49102;BME280;34913;47.520;19.186;2023-03-21T04:57:16;99820.41;;;7.27;90.75
49102;BME280;34913;47.520;19.186;2023-03-21T04:59:41;99820.59;;;7.37;90.41
49102;BME280;34913;47.520;19.186;2023-03-21T05:02:07;99828.28;;;7.40;90.02
49102;BME280;34913;47.520;19.186;2023-03-21T05:04:32;99824.19;;;7.36;89.78
49102;BME280;34913;47.520;19.186;2023-03-21T05:06:58;99831.16;;;7.37;90.73
49102;BME280;34913;47.520;19.186;2023-03-21T05:09:24;99822.56;;;7.46;90.14
49102;BME280;34913;47.520;19.186;2023-03-21T05:11:50;99822.84;;;7.54;89.66
49102;BME280;34913;47.520;19.186;2023-03-21T05:14:22;99830.94;;;7.64;89.26
49102;BME280;34913;47.520;19.186;2023-03-21T05:16:47;99828.69;;;7.70;88.63
49102;BME280;34913;47.520;19.186;2023-03-21T05:19:21;99828.38;;;7.75;88.37
49102;BME280;34913;47.520;19.186;2023-03-21T05:21:48;99823.13;;;7.86;88.24
49102;BME280;34913;47.520;19.186;2023-03-21T05:24:16;99824.88;;;7.98;87.66
49102;BME280;34913;47.520;19.186;2023-03-21T05:26:43;99824.06;;;8.09;87.60
49102;BME280;34913;47.520;19.186;2023-03-21T05:29:09;99828.63;;;8.18;87.58
49102;BME280;34913;47.520;19.186;2023-03-21T05:31:35;99830.47;;;8.29;87.42
49102;BME280;34913;47.520;19.186;2023-03-21T05:34:01;99830.41;;;8.42;87.35
49102;BME280;34913;47.520;19.186;2023-03-21T05:36:27;99825.88;;;8.55;87.32
49102;BME280;34913;47.520;19.186;2023-03-21T05:38:53;99834.53;;;8.68;87.06
49102;BME280;34913;47.520;19.186;2023-03-21T05:41:18;99836.50;;;8.77;86.33
49102;BME280;34913;47.520;19.186;2023-03-21T05:43:45;99845.53;;;8.86;86.18
49102;BME280;34913;47.520;19.186;2023-03-21T05:46:11;99851.91;;;8.94;85.86
49102;BME280;34913;47.520;19.186;2023-03-21T05:48:37;99846.59;;;9.06;85.25
49102;BME280;34913;47.520;19.186;2023-03-21T05:51:04;99850.69;;;9.21;84.59
49102;BME280;34913;47.520;19.186;2023-03-21T05:53:30;99854.75;;;9.36;83.25
49102;BME280;34913;47.520;19.186;2023-03-21T05:55:56;99849.06;;;9.52;83.02
49102;BME280;34913;47.520;19.186;2023-03-21T05:58:22;99848.81;;;9.66;82.56
49102;BME280;34913;47.520;19.186;2023-03-21T06:00:47;99851.41;;;9.77;81.85
49102;BME280;34913;47.520;19.186;2023-03-21T06:03:13;99856.63;;;10.00;80.96
49102;BME280;34913;47.520;19.186;2023-03-21T06:05:38;99848.72;;;10.21;79.27
49102;BME280;34913;47.520;19.186;2023-03-21T06:08:04;99854.53;;;10.47;79.00
49102;BME280;34913;47.520;19.186;2023-03-21T06:10:30;99850.91;;;10.69;76.94
49102;BME280;34913;47.520;19.186;2023-03-21T06:12:55;99849.44;;;10.85;75.96
49102;BME280;34913;47.520;19.186;2023-03-21T06:15:21;99851.75;;;11.00;74.77
49102;BME280;34913;47.520;19.186;2023-03-21T06:17:46;99850.03;;;11.29;74.20
49102;BME280;34913;47.520;19.186;2023-03-21T06:20:12;99854.75;;;11.66;72.21
49102;BME280;34913;47.520;19.186;2023-03-21T06:22:37;99851.19;;;11.96;70.27
49102;BME280;34913;47.520;19.186;2023-03-21T06:25:04;99859.59;;;12.30;68.63
49102;BME280;34913;47.520;19.186;2023-03-21T06:27:32;99855.91;;;12.60;67.33
49102;BME280;34913;47.520;19.186;2023-03-21T06:29:57;99864.59;;;12.62;66.96
49102;BME280;34913;47.520;19.186;2023-03-21T06:32:24;99861.75;;;12.83;67.38
49102;BME280;34913;47.520;19.186;2023-03-21T06:34:49;99869.25;;;13.07;65.65
49102;BME280;34913;47.520;19.186;2023-03-21T06:37:15;99870.31;;;13.24;65.29
49102;BME280;34913;47.520;19.186;2023-03-21T06:39:41;99862.47;;;13.50;63.47
49102;BME280;34913;47.520;19.186;2023-03-21T06:42:06;99869.72;;;13.57;62.72
49102;BME280;34913;47.520;19.186;2023-03-21T06:44:32;99864.00;;;13.80;62.42
49102;BME280;34913;47.520;19.186;2023-03-21T06:46:57;99868.06;;;14.02;61.61
49102;BME280;34913;47.520;19.186;2023-03-21T06:49:23;99865.63;;;14.26;60.82
49102;BME280;34913;47.520;19.186;2023-03-21T06:51:48;99853.16;;;14.70;59.51
49102;BME280;34913;47.520;19.186;2023-03-21T06:54:14;99856.25;;;15.18;57.58
49102;BME280;34913;47.520;19.186;2023-03-21T06:56:41;99859.50;;;15.72;55.18
49102;BME280;34913;47.520;19.186;2023-03-21T06:59:07;99860.44;;;16.29;54.82
49102;BME280;34913;47.520;19.186;2023-03-21T07:01:33;99852.03;;;16.81;52.91
49102;BME280;34913;47.520;19.186;2023-03-21T07:03:59;99855.56;;;16.73;52.67
49102;BME280;34913;47.520;19.186;2023-03-21T07:06:25;99851.81;;;17.15;52.11
49102;BME280;34913;47.520;19.186;2023-03-21T07:08:51;99863.97;;;17.34;51.13
49102;BME280;34913;47.520;19.186;2023-03-21T07:11:18;99857.47;;;17.20;51.33
49102;BME280;34913;47.520;19.186;2023-03-21T07:13:43;99863.94;;;16.87;51.96
49102;BME280;34913;47.520;19.186;2023-03-21T07:16:10;99859.22;;;16.89;52.33
49102;BME280;34913;47.520;19.186;2023-03-21T07:18:35;99857.03;;;17.00;50.83
49102;BME280;34913;47.520;19.186;2023-03-21T07:21:01;99869.81;;;17.38;50.64
49102;BME280;34913;47.520;19.186;2023-03-21T07:23:27;99869.31;;;17.81;49.01
49102;BME280;34913;47.520;19.186;2023-03-21T07:25:53;99870.34;;;17.80;49.03
49102;BME280;34913;47.520;19.186;2023-03-21T07:28:20;99862.41;;;17.87;48.52
49102;BME280;34913;47.520;19.186;2023-03-21T07:30:52;99873.63;;;17.51;49.22
49102;BME280;34913;47.520;19.186;2023-03-21T07:33:17;99877.22;;;17.36;50.14
49102;BME280;34913;47.520;19.186;2023-03-21T07:35:43;99871.34;;;17.40;49.81
49102;BME280;34913;47.520;19.186;2023-03-21T07:38:08;99874.34;;;17.37;49.49
49102;BME280;34913;47.520;19.186;2023-03-21T07:40:34;99870.72;;;17.14;50.71
49102;BME280;34913;47.520;19.186;2023-03-21T07:42:59;99873.41;;;17.30;50.43
49102;BME280;34913;47.520;19.186;2023-03-21T07:45:25;99876.00;;;16.91;51.45
49102;BME280;34913;47.520;19.186;2023-03-21T07:47:51;99866.34;;;17.21;50.64
49102;BME280;34913;47.520;19.186;2023-03-21T07:50:17;99867.75;;;17.56;50.77
49102;BME280;34913;47.520;19.186;2023-03-21T07:52:43;99868.00;;;17.77;49.66
49102;BME280;34913;47.520;19.186;2023-03-21T07:55:09;99866.78;;;17.88;48.50
49102;BME280;34913;47.520;19.186;2023-03-21T07:57:35;99872.56;;;18.00;48.26
49102;BME280;34913;47.520;19.186;2023-03-21T08:00:01;99871.47;;;18.17;47.78
49102;BME280;34913;47.520;19.186;2023-03-21T08:02:27;99869.09;;;18.37;46.33
49102;BME280;34913;47.520;19.186;2023-03-21T08:04:53;99862.25;;;18.11;46.80
49102;BME280;34913;47.520;19.186;2023-03-21T08:07:18;99861.69;;;18.16;47.02
49102;BME280;34913;47.520;19.186;2023-03-21T08:09:44;99861.53;;;18.18;47.73
49102;BME280;34913;47.520;19.186;2023-03-21T08:12:10;99860.22;;;18.36;46.53
49102;BME280;34913;47.520;19.186;2023-03-21T08:14:35;99863.66;;;18.68;46.66
49102;BME280;34913;47.520;19.186;2023-03-21T08:17:02;99870.44;;;18.41;46.30
49102;BME280;34913;47.520;19.186;2023-03-21T08:19:28;99856.50;;;18.14;47.29
49102;BME280;34913;47.520;19.186;2023-03-21T08:21:53;99864.44;;;18.54;46.79
49102;BME280;34913;47.520;19.186;2023-03-21T08:24:19;99872.88;;;18.51;45.80
49102;BME280;34913;47.520;19.186;2023-03-21T08:26:45;99867.75;;;18.79;46.22
49102;BME280;34913;47.520;19.186;2023-03-21T08:29:13;99864.06;;;18.94;45.42
49102;BME280;34913;47.520;19.186;2023-03-21T08:31:40;99866.78;;;19.09;45.32
49102;BME280;34913;47.520;19.186;2023-03-21T08:34:05;99864.25;;;18.93;45.18
49102;BME280;34913;47.520;19.186;2023-03-21T08:36:32;99867.81;;;19.08;44.74
49102;BME280;34913;47.520;19.186;2023-03-21T08:38:58;99871.97;;;18.81;45.63
49102;BME280;34913;47.520;19.186;2023-03-21T08:41:33;99869.13;;;19.12;44.25
49102;BME280;34913;47.520;19.186;2023-03-21T08:43:59;99863.25;;;19.23;44.48
49102;BME280;34913;47.520;19.186;2023-03-21T08:46:25;99871.63;;;19.14;44.72
49102;BME280;34913;47.520;19.186;2023-03-21T08:48:52;99864.63;;;19.19;44.25
49102;BME280;34913;47.520;19.186;2023-03-21T08:51:18;99863.16;;;19.17;44.33
49102;BME280;34913;47.520;19.186;2023-03-21T08:53:44;99866.13;;;19.37;43.50
49102;BME280;34913;47.520;19.186;2023-03-21T08:56:10;99863.16;;;19.46;43.85
49102;BME280;34913;47.520;19.186;2023-03-21T08:58:37;99857.88;;;19.23;43.85
49102;BME280;34913;47.520;19.186;2023-03-21T09:01:03;99852.78;;;19.14;43.25
49102;BME280;34913;47.520;19.186;2023-03-21T09:03:31;99846.19;;;19.31;42.28
49102;BME280;34913;47.520;19.186;2023-03-21T09:05:57;99843.28;;;19.47;39.27
49102;BME280;34913;47.520;19.186;2023-03-21T09:08:23;99849.50;;;19.33;39.80
49102;BME280;34913;47.520;19.186;2023-03-21T09:10:52;99847.38;;;19.58;39.81
49102;BME280;34913;47.520;19.186;2023-03-21T09:13:17;99848.78;;;19.39;39.77
49102;BME280;34913;47.520;19.186;2023-03-21T09:15:43;99842.84;;;19.00;39.88
49102;BME280;34913;47.520;19.186;2023-03-21T09:18:10;99843.63;;;18.71;41.14
49102;BME280;34913;47.520;19.186;2023-03-21T09:20:40;99851.44;;;18.20;41.46
49102;BME280;34913;47.520;19.186;2023-03-21T09:23:07;99845.69;;;18.23;40.55
49102;BME280;34913;47.520;19.186;2023-03-21T09:25:33;99851.81;;;18.54;39.51
49102;BME280;34913;47.520;19.186;2023-03-21T09:28:00;99853.41;;;18.63;39.79
49102;BME280;34913;47.520;19.186;2023-03-21T09:30:26;99843.69;;;19.00;39.84
49102;BME280;34913;47.520;19.186;2023-03-21T09:32:52;99846.38;;;19.30;39.28
49102;BME280;34913;47.520;19.186;2023-03-21T09:35:20;99842.84;;;19.14;37.56
49102;BME280;34913;47.520;19.186;2023-03-21T09:37:46;99843.09;;;19.34;38.41
49102;BME280;34913;47.520;19.186;2023-03-21T09:40:14;99849.31;;;19.49;37.27
49102;BME280;34913;47.520;19.186;2023-03-21T09:43:05;99843.78;;;19.36;39.05
49102;BME280;34913;47.520;19.186;2023-03-21T09:46:20;99851.16;;;19.49;38.63
49102;BME280;34913;47.520;19.186;2023-03-21T09:48:48;99846.91;;;19.25;36.71
49102;BME280;34913;47.520;19.186;2023-03-21T09:51:16;99845.63;;;19.06;37.31
49102;BME280;34913;47.520;19.186;2023-03-21T09:53:46;99853.03;;;18.75;36.30
49102;BME280;34913;47.520;19.186;2023-03-21T09:56:13;99844.22;;;18.20;37.18
49102;BME280;34913;47.520;19.186;2023-03-21T09:58:48;99835.16;;;18.21;39.08
49102;BME280;34913;47.520;19.186;2023-03-21T10:01:28;99835.66;;;18.39;38.96
49102;BME280;34913;47.520;19.186;2023-03-21T10:03:59;99842.94;;;18.31;39.56
49102;BME280;34913;47.520;19.186;2023-03-21T10:06:26;99835.69;;;18.54;40.18
49102;BME280;34913;47.520;19.186;2023-03-21T10:09:07;99836.72;;;18.53;38.55
49102;BME280;34913;47.520;19.186;2023-03-21T10:11:46;99834.13;;;18.83;42.02
49102;BME280;34913;47.520;19.186;2023-03-21T10:14:18;99836.06;;;19.04;40.64
49102;BME280;34913;47.520;19.186;2023-03-21T10:16:51;99829.50;;;19.36;39.92
49102;BME280;34913;47.520;19.186;2023-03-21T10:19:19;99828.47;;;19.22;38.03
49102;BME280;34913;47.520;19.186;2023-03-21T10:21:47;99828.28;;;19.09;38.68
49102;BME280;34913;47.520;19.186;2023-03-21T10:24:16;99826.13;;;19.34;39.70
49102;BME280;34913;47.520;19.186;2023-03-21T10:26:42;99834.28;;;19.25;39.28
49102;BME280;34913;47.520;19.186;2023-03-21T10:29:10;99826.31;;;19.47;39.09
49102;BME280;34913;47.520;19.186;2023-03-21T10:31:37;99821.53;;;19.28;40.37
49102;BME280;34913;47.520;19.186;2023-03-21T10:34:17;99831.41;;;19.57;39.54
49102;BME280;34913;47.520;19.186;2023-03-21T10:36:43;99829.63;;;19.64;39.26
49102;BME280;34913;47.520;19.186;2023-03-21T10:39:31;99813.53;;;19.85;39.77
49102;BME280;34913;47.520;19.186;2023-03-21T10:41:58;99820.44;;;19.58;39.81
49102;BME280;34913;47.520;19.186;2023-03-21T10:44:32;99822.28;;;19.72;39.78
49102;BME280;34913;47.520;19.186;2023-03-21T10:47:07;99820.41;;;19.73;39.58
49102;BME280;34913;47.520;19.186;2023-03-21T10:49:33;99822.78;;;19.83;35.62
49102;BME280;34913;47.520;19.186;2023-03-21T10:52:03;99828.81;;;19.34;35.61
49102;BME280;34913;47.520;19.186;2023-03-21T10:54:32;99820.09;;;18.87;39.07
49102;BME280;34913;47.520;19.186;2023-03-21T10:57:07;99824.16;;;18.31;39.49
49102;BME280;34913;47.520;19.186;2023-03-21T10:59:45;99810.44;;;18.26;39.72
49102;BME280;34913;47.520;19.186;2023-03-21T11:02:20;99813.94;;;18.64;36.99
49102;BME280;34913;47.520;19.186;2023-03-21T11:04:48;99806.13;;;18.92;36.49
49102;BME280;34913;47.520;19.186;2023-03-21T11:07:15;99808.16;;;19.05;37.54
49102;BME280;34913;47.520;19.186;2023-03-21T11:09:56;99804.91;;;18.94;37.95
49102;BME280;34913;47.520;19.186;2023-03-21T11:12:32;99796.38;;;18.38;38.59
49102;BME280;34913;47.520;19.186;2023-03-21T11:15:36;99801.34;;;18.27;39.92
49102;BME280;34913;47.520;19.186;2023-03-21T11:18:18;99790.88;;;17.94;39.19
49102;BME280;34913;47.520;19.186;2023-03-21T11:23:22;99782.19;;;18.30;39.96
49102;BME280;34913;47.520;19.186;2023-03-21T11:25:50;99781.19;;;18.46;39.40
49102;BME280;34913;47.520;19.186;2023-03-21T11:28:20;99779.13;;;18.85;38.78
49102;BME280;34913;47.520;19.186;2023-03-21T11:30:54;99769.91;;;19.24;37.23
49102;BME280;34913;47.520;19.186;2023-03-21T11:33:22;99767.72;;;19.49;36.41
49102;BME280;34913;47.520;19.186;2023-03-21T11:36:02;99767.31;;;19.67;35.84
49102;BME280;34913;47.520;19.186;2023-03-21T11:38:31;99769.25;;;19.37;36.40
49102;BME280;34913;47.520;19.186;2023-03-21T11:40:59;99773.09;;;19.13;35.71
49102;BME280;34913;47.520;19.186;2023-03-21T11:45:58;99763.03;;;19.72;37.06
49102;BME280;34913;47.520;19.186;2023-03-21T11:48:24;99759.84;;;19.47;38.16
49102;BME280;34913;47.520;19.186;2023-03-21T11:50:57;99755.75;;;19.51;38.54
49102;BME280;34913;47.520;19.186;2023-03-21T11:53:36;99759.44;;;19.87;38.07
49102;BME280;34913;47.520;19.186;2023-03-21T11:56:31;99758.13;;;20.25;35.29
49102;BME280;34913;47.520;19.186;2023-03-21T12:01:56;99743.75;;;20.40;36.42
49102;BME280;34913;47.520;19.186;2023-03-21T12:09:41;99738.47;;;19.82;34.50
49102;BME280;34913;47.520;19.186;2023-03-21T12:12:13;99738.66;;;19.23;36.48
49102;BME280;34913;47.520;19.186;2023-03-21T12:14:54;99734.03;;;19.02;37.39
49102;BME280;34913;47.520;19.186;2023-03-21T12:26:00;99736.31;;;19.56;36.05
49102;BME280;34913;47.520;19.186;2023-03-21T12:28:38;99734.84;;;19.68;36.28
49102;BME280;34913;47.520;19.186;2023-03-21T12:34:26;99726.75;;;19.68;36.73
49102;BME280;34913;47.520;19.186;2023-03-21T12:39:28;99714.97;;;20.19;33.30
49102;BME280;34913;47.520;19.186;2023-03-21T12:42:11;99720.00;;;20.28;34.30
49102;BME280;34913;47.520;19.186;2023-03-21T12:44:50;99715.94;;;20.11;34.96
49102;BME280;34913;47.520;19.186;2023-03-21T12:47:29;99715.28;;;20.30;34.43
49102;BME280;34913;47.520;19.186;2023-03-21T12:50:02;99700.75;;;20.31;34.12
49102;BME280;34913;47.520;19.186;2023-03-21T12:52:38;99719.47;;;19.90;35.19
49102;BME280;34913;47.520;19.186;2023-03-21T13:05:34;99708.66;;;18.90;36.86
49102;BME280;34913;47.520;19.186;2023-03-21T13:08:10;99708.78;;;18.67;37.96
49102;BME280;34913;47.520;19.186;2023-03-21T13:10:39;99705.03;;;18.53;37.80
49102;BME280;34913;47.520;19.186;2023-03-21T13:13:18;99701.88;;;18.50;38.81
49102;BME280;34913;47.520;19.186;2023-03-21T13:26:40;99687.34;;;19.24;37.63
49102;BME280;34913;47.520;19.186;2023-03-21T13:29:24;99686.31;;;19.25;36.38
49102;BME280;34913;47.520;19.186;2023-03-21T13:31:52;99688.38;;;19.45;35.28
49102;BME280;34913;47.520;19.186;2023-03-21T13:34:22;99690.97;;;19.53;35.24
49102;BME280;34913;47.520;19.186;2023-03-21T13:36:49;99687.47;;;19.38;35.24
49102;BME280;34913;47.520;19.186;2023-03-21T13:39:18;99680.19;;;19.53;35.09
49102;BME280;34913;47.520;19.186;2023-03-21T13:41:46;99682.47;;;19.56;34.41
49102;BME280;34913;47.520;19.186;2023-03-21T13:44:23;99673.91;;;19.46;34.33
49102;BME280;34913;47.520;19.186;2023-03-21T13:49:30;99676.94;;;18.85;36.49
49102;BME280;34913;47.520;19.186;2023-03-21T13:51:58;99682.91;;;18.66;37.03
49102;BME280;34913;47.520;19.186;2023-03-21T13:54:44;99673.06;;;18.58;35.95
49102;BME280;34913;47.520;19.186;2023-03-21T14:00:29;99660.94;;;18.33;37.42
49102;BME280;34913;47.520;19.186;2023-03-21T14:05:24;99660.13;;;17.95;38.12
49102;BME280;34913;47.520;19.186;2023-03-21T14:07:57;99661.16;;;18.23;38.04
49102;BME280;34913;47.520;19.186;2023-03-21T14:10:37;99659.97;;;18.11;38.20
49102;BME280;34913;47.520;19.186;2023-03-21T14:13:08;99647.75;;;18.23;38.12
49102;BME280;34913;47.520;19.186;2023-03-21T14:15:41;99657.19;;;18.19;37.71
49102;BME280;34913;47.520;19.186;2023-03-21T14:18:14;99662.28;;;18.14;38.30
49102;BME280;34913;47.520;19.186;2023-03-21T14:20:41;99649.81;;;17.83;37.98
49102;BME280;34913;47.520;19.186;2023-03-21T14:23:13;99642.16;;;17.95;38.02
49102;BME280;34913;47.520;19.186;2023-03-21T14:25:39;99637.78;;;17.79;38.10
49102;BME280;34913;47.520;19.186;2023-03-21T14:28:36;99641.19;;;18.11;36.97
49102;BME280;34913;47.520;19.186;2023-03-21T14:31:03;99629.22;;;18.13;36.89
49102;BME280;34913;47.520;19.186;2023-03-21T14:33:37;99627.94;;;18.09;36.47
49102;BME280;34913;47.520;19.186;2023-03-21T14:36:16;99624.69;;;18.14;36.08
49102;BME280;34913;47.520;19.186;2023-03-21T14:38:43;99627.84;;;18.03;36.36